createdAt,value
2023-06-15T12:06:07.084Z,66.33
2023-06-15T12:06:42.588Z,63.67
2023-06-15T12:07:28.251Z,55.33
2023-06-15T12:08:13.321Z,44.33
2023-06-15T12:09:01.012Z,31.67
2023-06-15T12:09:34.704Z,31.67
2023-06-15T12:10:11.098Z,39.00
2023-06-15T12:10:44.549Z,42.33
2023-06-15T12:11:27.551Z,45.00
2023-06-15T12:12:02.004Z,64.33
2023-06-15T12:12:36.877Z,76.33
2023-06-15T12:13:13.982Z,80.33
2023-06-15T12:13:47.587Z,87.00
2023-06-15T12:14:23.007Z,83.00
2023-06-15T12:15:03.774Z,76.33
2023-06-15T12:15:41.125Z,59.67
2023-06-15T12:16:16.399Z,35.00
2023-06-15T12:16:52.320Z,28.67
2023-06-15T12:17:33.621Z,26.33
2023-06-15T12:18:09.662Z,22.00
2023-06-15T12:18:43.259Z,24.67
2023-06-15T12:19:16.640Z,25.33
2023-06-15T12:20:05.665Z,22.67
2023-06-15T12:20:41.651Z,16.33
2023-06-15T12:21:21.244Z,16.00
2023-06-15T12:22:03.717Z,18.33
2023-06-15T12:22:50.514Z,25.00
2023-06-15T12:23:32.186Z,27.67
2023-06-15T12:24:20.606Z,29.67
2023-06-15T12:24:54.199Z,53.67
2023-06-15T12:25:43.543Z,71.67
2023-06-15T12:26:21.267Z,75.67
2023-06-15T12:26:58.923Z,80.00
2023-06-15T12:27:32.933Z,86.67
2023-06-15T12:28:19.076Z,91.67
2023-06-15T12:28:53.446Z,73.67
2023-06-15T12:29:27.942Z,70.33
2023-06-15T12:30:16.959Z,82.67
2023-06-15T12:30:52.154Z,94.67
2023-06-15T12:31:36.414Z,123.33
2023-06-15T12:32:09.826Z,158.33
2023-06-15T12:32:47.836Z,133.33
2023-06-15T12:33:31.663Z,125.33
2023-06-15T12:34:10.378Z,104.00
2023-06-15T12:34:46.348Z,111.67
2023-06-15T12:35:39.724Z,120.00
2023-06-15T12:36:15.825Z,104.33
2023-06-15T12:36:51.864Z,97.33
2023-06-15T12:37:25.449Z,67.00
2023-06-15T12:38:00.508Z,65.33
2023-06-15T12:38:33.959Z,72.00
2023-06-15T12:39:15.494Z,88.33
2023-06-15T12:39:49.963Z,122.00
2023-06-15T12:40:24.404Z,124.67
2023-06-15T12:41:01.748Z,118.67
2023-06-15T12:41:40.742Z,116.67
2023-06-15T12:42:21.842Z,112.33
2023-06-15T12:43:00.339Z,112.67
2023-06-15T12:43:33.739Z,109.00
2023-06-15T12:44:08.021Z,107.67
2023-06-15T12:44:41.635Z,107.00
2023-06-15T12:45:16.223Z,106.67
2023-06-15T12:45:50.100Z,104.67
2023-06-15T12:46:23.837Z,98.00
2023-06-15T12:46:57.347Z,93.33
2023-06-15T12:47:30.877Z,83.33
2023-06-15T12:48:06.267Z,62.00
2023-06-15T12:48:39.653Z,47.33
2023-06-15T12:49:13.097Z,41.00
2023-06-15T12:49:46.617Z,38.33
2023-06-15T12:50:20.118Z,37.00
2023-06-15T12:50:54.448Z,30.33
2023-06-15T12:51:28.584Z,28.33
2023-06-15T12:52:03.103Z,35.33
2023-06-15T12:52:36.462Z,46.67
2023-06-15T12:53:10.328Z,54.67
2023-06-15T12:53:45.920Z,62.00
2023-06-15T12:54:19.782Z,73.67
2023-06-15T12:54:54.356Z,102.33
2023-06-15T12:55:29.562Z,114.33
2023-06-15T12:56:07.784Z,120.00
2023-06-15T12:56:41.435Z,135.67
2023-06-15T12:57:14.798Z,123.00
2023-06-15T12:57:48.288Z,128.67
2023-06-15T12:58:21.646Z,127.33
2023-06-15T12:58:56.103Z,135.00
2023-06-15T12:59:33.638Z,139.33
2023-06-15T13:00:08.191Z,127.33
2023-06-15T13:00:43.549Z,119.33
2023-06-15T13:01:20.011Z,116.67
2023-06-15T13:01:53.725Z,115.00
2023-06-15T13:02:28.684Z,129.67
2023-06-15T13:03:02.381Z,120.67
2023-06-15T13:03:36.393Z,118.00
2023-06-15T13:04:10.184Z,116.67
2023-06-15T13:04:43.751Z,120.33
2023-06-15T13:05:17.546Z,139.00
2023-06-15T13:05:50.931Z,133.33
2023-06-15T13:06:24.296Z,143.67
2023-06-15T13:06:57.638Z,163.00
2023-06-15T13:07:37.542Z,165.67
2023-06-15T13:08:12.403Z,151.00
2023-06-15T13:08:46.251Z,137.67
2023-06-15T13:09:22.475Z,138.33
2023-06-15T13:10:00.237Z,161.67
2023-06-15T13:10:36.419Z,151.67
2023-06-15T13:11:09.768Z,135.67
2023-06-15T13:11:43.062Z,113.00
2023-06-15T13:12:16.365Z,95.67
2023-06-15T13:12:49.913Z,90.33
2023-06-15T13:13:23.968Z,98.67
2023-06-15T13:13:57.672Z,91.67
2023-06-15T13:14:34.169Z,83.67
2023-06-15T13:15:10.810Z,97.67
2023-06-15T13:15:48.102Z,101.67
2023-06-15T13:16:22.532Z,93.00
2023-06-15T13:16:55.860Z,77.00
2023-06-15T13:17:29.722Z,78.67
2023-06-15T13:18:06.056Z,82.33
2023-06-15T13:18:42.295Z,89.00
2023-06-15T13:19:18.599Z,82.00
2023-06-15T13:19:55.885Z,73.00
2023-06-15T13:20:29.397Z,83.00
2023-06-15T13:21:04.971Z,87.67
2023-06-15T13:21:38.445Z,88.33
2023-06-15T13:22:12.211Z,90.00
2023-06-15T13:22:50.483Z,101.33
2023-06-15T13:23:24.166Z,147.00
2023-06-15T13:24:00.192Z,171.33
2023-06-15T13:24:37.795Z,179.67
2023-06-15T13:25:11.316Z,172.00
2023-06-15T13:25:44.837Z,156.00
2023-06-15T13:26:18.166Z,156.33
2023-06-15T13:26:51.532Z,153.33
2023-06-15T13:27:25.256Z,154.33
2023-06-15T13:28:01.243Z,159.67
2023-06-15T13:28:42.480Z,148.33
2023-06-15T13:29:15.957Z,142.00
2023-06-15T13:29:49.763Z,134.67
2023-06-15T13:30:23.160Z,122.67
2023-06-15T13:30:59.655Z,123.00
2023-06-15T13:31:35.900Z,121.00
2023-06-15T13:32:10.988Z,114.00
2023-06-15T13:32:47.400Z,103.67
2023-06-15T13:33:21.467Z,96.67
2023-06-15T13:33:57.433Z,98.33
2023-06-15T13:34:39.567Z,106.33
2023-06-15T13:35:16.415Z,109.67
2023-06-15T13:35:50.270Z,114.00
2023-06-15T13:36:32.985Z,114.00
2023-06-15T13:37:07.091Z,98.00
2023-06-15T13:37:43.478Z,100.67
2023-06-15T13:38:17.768Z,90.67
2023-06-15T13:38:51.479Z,92.33
2023-06-15T13:39:25.024Z,95.33
2023-06-15T13:40:00.068Z,101.33
2023-06-15T13:40:33.304Z,128.00
2023-06-15T13:41:09.778Z,129.00
2023-06-15T13:41:45.091Z,147.67
2023-06-15T13:42:18.457Z,161.00
2023-06-15T13:42:52.367Z,149.00
2023-06-15T13:43:25.955Z,129.00
2023-06-15T13:44:00.403Z,92.33
2023-06-15T13:44:34.048Z,86.33
2023-06-15T13:45:18.706Z,72.33
2023-06-15T13:45:52.691Z,65.00
2023-06-15T13:46:26.186Z,74.33
2023-06-15T13:47:02.403Z,80.67
2023-06-15T13:47:42.720Z,89.33
2023-06-15T13:48:16.391Z,77.67
2023-06-15T13:48:49.887Z,71.67
2023-06-15T13:49:26.735Z,75.67
2023-06-15T13:50:00.924Z,74.00
2023-06-15T13:50:36.604Z,65.33
2023-06-15T13:51:10.002Z,68.67
2023-06-15T13:51:43.489Z,67.33
2023-06-15T13:52:17.551Z,60.67
2023-06-15T13:52:51.633Z,51.67
2023-06-15T13:53:25.411Z,54.67
2023-06-15T13:53:59.240Z,54.67
2023-06-15T13:54:32.605Z,59.67
2023-06-15T13:55:07.554Z,61.33
2023-06-15T13:55:44.854Z,62.33
2023-06-15T13:56:18.394Z,65.33
2023-06-15T13:56:52.078Z,67.33
2023-06-15T13:57:25.441Z,70.67
2023-06-15T13:57:59.136Z,73.67
2023-06-15T13:58:32.518Z,75.00
2023-06-15T13:59:05.833Z,75.33
2023-06-15T13:59:40.698Z,76.33
2023-06-15T14:00:15.514Z,83.67
2023-06-15T14:00:52.084Z,101.67
2023-06-15T14:01:30.157Z,125.67
2023-06-15T14:02:03.822Z,132.00
2023-06-15T14:02:37.761Z,142.00
2023-06-15T14:03:11.259Z,135.67
2023-06-15T14:03:45.877Z,137.67
2023-06-15T14:04:20.688Z,126.67
2023-06-15T14:04:56.355Z,116.00
2023-06-15T14:05:30.759Z,113.67
2023-06-15T14:06:04.622Z,114.67
2023-06-15T14:06:41.261Z,121.00
2023-06-15T14:07:15.926Z,121.67
2023-06-15T14:07:54.658Z,103.33
2023-06-15T14:08:27.986Z,73.67
2023-06-15T14:09:03.202Z,69.00
2023-06-15T14:09:36.892Z,79.33
2023-06-15T14:10:11.358Z,83.00
2023-06-15T14:10:47.503Z,84.67
2023-06-15T14:11:22.900Z,85.67
2023-06-15T14:11:59.829Z,86.33
2023-06-15T14:12:37.663Z,91.00
2023-06-15T14:13:11.476Z,95.33
2023-06-15T14:13:51.708Z,79.00
2023-06-15T14:14:27.223Z,76.33
2023-06-15T14:15:01.993Z,78.33
2023-06-15T14:15:36.570Z,79.00
2023-06-15T14:16:09.869Z,73.67
2023-06-15T14:16:43.281Z,65.67
2023-06-15T14:17:16.709Z,60.33
2023-06-15T14:17:50.019Z,61.67
2023-06-15T14:18:24.482Z,64.00
2023-06-15T14:19:00.398Z,60.00
2023-06-15T14:19:33.771Z,53.33
2023-06-15T14:20:10.339Z,60.67
2023-06-15T14:20:47.696Z,66.33
2023-06-15T14:21:21.107Z,79.00
2023-06-15T14:21:57.080Z,98.33
2023-06-15T14:22:32.020Z,95.33
2023-06-15T14:23:05.427Z,86.33
2023-06-15T14:23:39.162Z,67.33
2023-06-15T14:24:12.773Z,53.33
2023-06-15T14:24:48.755Z,50.67
2023-06-15T14:25:22.161Z,52.67
2023-06-15T14:25:56.486Z,44.00
2023-06-15T14:26:30.040Z,37.33
2023-06-15T14:27:06.522Z,30.33
2023-06-15T14:27:47.935Z,29.33
2023-06-15T14:28:21.500Z,28.00
2023-06-15T14:28:54.954Z,27.67
2023-06-15T14:29:28.359Z,31.67
2023-06-15T14:30:04.658Z,30.67
2023-06-15T14:30:38.505Z,28.33
2023-06-15T14:31:11.988Z,29.00
2023-06-15T14:31:50.632Z,29.00
2023-06-15T14:32:26.066Z,26.00
2023-06-15T14:32:59.434Z,26.33
2023-06-15T14:33:32.889Z,30.33
2023-06-15T14:34:06.315Z,31.33
2023-06-15T14:34:40.851Z,34.00
2023-06-15T14:35:14.776Z,35.67
2023-06-15T14:35:48.115Z,37.00
2023-06-15T14:36:22.567Z,36.67
2023-06-15T14:36:55.950Z,31.67
2023-06-15T14:37:32.034Z,25.00
2023-06-15T14:38:10.399Z,21.67
2023-06-15T14:38:43.767Z,19.00
2023-06-15T14:39:19.135Z,19.00
2023-06-15T14:39:54.813Z,18.67
2023-06-15T14:40:34.074Z,20.33
2023-06-15T14:41:07.488Z,27.00
2023-06-15T14:41:41.699Z,48.00
2023-06-15T14:42:20.541Z,72.33
2023-06-15T14:42:54.125Z,67.67
2023-06-15T14:43:30.924Z,57.67
2023-06-15T14:44:11.655Z,56.00
2023-06-15T14:44:45.612Z,54.33
2023-06-15T14:45:23.606Z,51.67
2023-06-15T14:45:57.520Z,45.67
2023-06-15T14:46:31.112Z,42.00
2023-06-15T14:47:04.956Z,40.67
2023-06-15T14:47:39.138Z,40.00
2023-06-15T14:48:12.673Z,39.00
2023-06-15T14:48:47.538Z,37.67
2023-06-15T14:49:24.172Z,35.00
2023-06-15T14:49:58.408Z,33.00
2023-06-15T14:50:32.648Z,30.67
2023-06-15T14:51:05.934Z,27.33
2023-06-15T14:51:42.639Z,27.33
2023-06-15T14:52:18.958Z,28.67
2023-06-15T14:52:52.339Z,29.00
2023-06-15T14:53:28.601Z,30.00
2023-06-15T14:54:02.310Z,30.00
2023-06-15T14:54:35.707Z,30.67
2023-06-15T14:55:09.622Z,31.67
2023-06-15T14:55:43.069Z,48.67
2023-06-15T14:56:20.787Z,81.00
2023-06-15T14:56:57.377Z,93.67
2023-06-15T14:57:33.385Z,109.00
2023-06-15T14:58:07.004Z,109.33
2023-06-15T14:58:40.599Z,101.00
2023-06-15T14:59:14.258Z,97.00
2023-06-15T14:59:50.505Z,86.67
2023-06-15T15:00:24.121Z,76.67
2023-06-15T15:00:58.186Z,74.33
2023-06-15T15:01:34.657Z,75.33
2023-06-15T15:02:09.085Z,87.00
2023-06-15T15:02:43.109Z,87.00
2023-06-15T15:03:16.598Z,105.00
2023-06-15T15:03:52.355Z,99.67
2023-06-15T15:04:28.245Z,97.33
2023-06-15T15:05:04.653Z,88.00
2023-06-15T15:05:38.067Z,71.00
2023-06-15T15:06:11.430Z,54.67
2023-06-15T15:06:44.749Z,54.33
2023-06-15T15:07:19.309Z,48.67
2023-06-15T15:07:56.773Z,47.67
2023-06-15T15:08:34.034Z,52.33
2023-06-15T15:09:13.321Z,66.00
2023-06-15T15:09:47.559Z,100.67
2023-06-15T15:10:24.878Z,113.67
2023-06-15T15:10:58.869Z,109.33
2023-06-15T15:11:37.196Z,118.00
2023-06-15T15:12:12.503Z,125.67
2023-06-15T15:12:49.403Z,104.33
2023-06-15T15:13:23.350Z,98.67
2023-06-15T15:13:59.529Z,97.00
2023-06-15T15:14:34.118Z,95.33
2023-06-15T15:15:11.483Z,94.67
2023-06-15T15:15:49.229Z,93.33
2023-06-15T15:16:24.021Z,90.33
2023-06-15T15:16:58.310Z,72.67
2023-06-15T15:17:34.457Z,57.67
2023-06-15T15:18:07.947Z,55.67
2023-06-15T15:18:45.418Z,54.33
2023-06-15T15:19:22.749Z,50.67
2023-06-15T15:20:06.770Z,57.67
2023-06-15T15:20:40.312Z,61.67
2023-06-15T15:21:13.748Z,80.67
2023-06-15T15:21:49.198Z,89.00
2023-06-15T15:22:24.404Z,89.67
2023-06-15T15:22:59.713Z,89.33
2023-06-15T15:23:36.990Z,74.33
2023-06-15T15:24:11.022Z,52.33
2023-06-15T15:24:44.435Z,50.00
2023-06-15T15:25:17.973Z,50.67
2023-06-15T15:25:51.701Z,52.33
2023-06-15T15:26:25.043Z,48.33
2023-06-15T15:26:58.526Z,42.33
2023-06-15T15:27:35.043Z,39.00
2023-06-15T15:28:11.608Z,37.33
2023-06-15T15:28:46.373Z,41.00
2023-06-15T15:29:25.021Z,44.33
2023-06-15T15:30:01.335Z,40.00
2023-06-15T15:30:37.205Z,38.00
2023-06-15T15:31:10.875Z,35.67
2023-06-15T15:31:45.573Z,37.00
2023-06-15T15:32:19.080Z,39.00
2023-06-15T15:32:52.930Z,41.33
2023-06-15T15:33:29.590Z,42.67
2023-06-15T15:34:03.117Z,43.67
2023-06-15T15:34:42.320Z,44.00
2023-06-15T15:35:18.547Z,44.00
2023-06-15T15:35:52.399Z,45.00
2023-06-15T15:36:26.416Z,45.00
2023-06-15T15:37:01.001Z,45.00
2023-06-15T15:37:38.809Z,44.00
2023-06-15T15:38:12.534Z,42.67
2023-06-15T15:38:46.100Z,39.67
2023-06-15T15:39:19.878Z,38.00
2023-06-15T15:39:54.045Z,36.67
2023-06-15T15:40:27.321Z,35.00
2023-06-15T15:41:00.707Z,32.67
2023-06-15T15:41:37.197Z,32.00
2023-06-15T15:42:10.768Z,32.33
2023-06-15T15:42:44.095Z,30.33
2023-06-15T15:43:21.252Z,29.00
2023-06-15T15:43:55.082Z,27.00
2023-06-15T15:44:28.536Z,25.67
2023-06-15T15:45:02.224Z,25.33
2023-06-15T15:45:38.947Z,23.33
2023-06-15T15:46:14.617Z,22.67
2023-06-15T15:46:48.240Z,21.67
2023-06-15T15:47:21.649Z,19.67
2023-06-15T15:47:57.911Z,19.00
2023-06-15T15:48:31.436Z,20.00
2023-06-15T15:49:04.900Z,20.00
2023-06-15T15:49:41.313Z,21.00
2023-06-15T15:50:14.699Z,20.00
2023-06-15T15:50:50.603Z,20.00
2023-06-15T15:51:27.038Z,19.00
2023-06-15T15:52:01.088Z,20.00
2023-06-15T15:52:35.686Z,20.00
2023-06-15T15:53:11.872Z,20.33
2023-06-15T15:53:45.370Z,21.00
2023-06-15T15:54:29.472Z,21.00
2023-06-15T15:55:05.971Z,21.00
2023-06-15T15:55:44.128Z,20.67
2023-06-15T15:56:18.832Z,20.00
2023-06-15T15:56:52.264Z,20.00
2023-06-15T15:57:32.523Z,19.67
2023-06-15T15:58:09.006Z,19.00
2023-06-15T15:58:43.797Z,19.33
2023-06-15T15:59:23.422Z,20.00
2023-06-15T15:59:56.871Z,20.00
2023-06-15T16:00:31.064Z,20.33
2023-06-15T16:01:04.626Z,21.00
2023-06-15T16:01:39.506Z,21.00
2023-06-15T16:02:12.963Z,21.33
2023-06-15T16:02:48.585Z,22.33
2023-06-15T16:03:24.706Z,28.33
2023-06-15T16:03:58.435Z,37.67
2023-06-15T16:04:33.168Z,37.00
2023-06-15T16:05:09.407Z,36.00
2023-06-15T16:05:42.813Z,35.00
2023-06-15T16:06:18.641Z,35.00
2023-06-15T16:06:55.369Z,34.33
2023-06-15T16:07:28.761Z,35.67
2023-06-15T16:08:06.720Z,37.67
2023-06-15T16:08:40.889Z,38.00
2023-06-15T16:09:14.729Z,37.67
2023-06-15T16:09:50.305Z,37.00
2023-06-15T16:10:28.340Z,36.33
2023-06-15T16:11:04.900Z,35.67
2023-06-15T16:11:38.651Z,35.33
2023-06-15T16:12:16.901Z,36.33
2023-06-15T16:12:56.635Z,40.00
2023-06-15T16:13:31.032Z,43.67
2023-06-15T16:14:08.606Z,43.33
2023-06-15T16:14:43.349Z,42.00
2023-06-15T16:15:18.151Z,40.00
2023-06-15T16:16:07.825Z,38.00
2023-06-15T16:16:46.874Z,37.00
2023-06-15T16:17:23.173Z,35.67
2023-06-15T16:17:56.559Z,34.00
2023-06-15T16:18:32.928Z,31.00
2023-06-15T16:19:06.313Z,28.67
2023-06-15T16:19:41.002Z,27.33
2023-06-15T16:20:15.410Z,26.33
2023-06-15T16:20:48.784Z,26.00
2023-06-15T16:21:23.312Z,26.00
2023-06-15T16:22:02.498Z,26.00
2023-06-15T16:22:36.890Z,25.33
2023-06-15T16:23:12.660Z,26.00
2023-06-15T16:23:46.011Z,27.00
2023-06-15T16:24:21.597Z,27.00
2023-06-15T16:24:54.913Z,27.00
2023-06-15T16:25:28.315Z,27.67
2023-06-15T16:26:04.833Z,28.00
2023-06-15T16:26:38.306Z,29.00
2023-06-15T16:27:12.162Z,29.67
2023-06-15T16:27:48.735Z,30.00
2023-06-15T16:28:22.225Z,33.00
2023-06-15T16:28:55.526Z,36.67
2023-06-15T16:29:28.947Z,38.33
2023-06-15T16:30:02.336Z,41.33
2023-06-15T16:30:36.852Z,40.67
2023-06-15T16:31:10.265Z,40.00
2023-06-15T16:31:43.619Z,38.67
2023-06-15T16:32:20.268Z,37.33
2023-06-15T16:32:56.565Z,39.00
2023-06-15T16:33:30.576Z,40.00
2023-06-15T16:34:07.818Z,39.33
2023-06-15T16:34:42.466Z,39.00
2023-06-15T16:35:15.836Z,39.00
2023-06-15T16:35:49.432Z,39.00
2023-06-15T16:36:22.825Z,40.00
2023-06-15T16:36:56.597Z,42.67
2023-06-15T16:37:30.115Z,59.33
2023-06-15T16:38:03.461Z,73.67
2023-06-15T16:38:36.684Z,75.67
2023-06-15T16:39:36.110Z,66.00
2023-06-15T16:40:10.153Z,57.67
2023-06-15T16:40:48.184Z,56.00
2023-06-15T16:41:24.246Z,49.00
2023-06-15T16:41:57.845Z,40.33
2023-06-15T16:42:31.519Z,33.67
2023-06-15T16:43:05.853Z,28.33
2023-06-15T16:43:39.397Z,26.00
2023-06-15T16:44:12.728Z,28.00
2023-06-15T16:44:48.190Z,29.67
2023-06-15T16:45:21.520Z,31.00
2023-06-15T16:45:54.886Z,35.33
2023-06-15T16:46:28.377Z,41.00
2023-06-15T16:47:04.953Z,45.00
2023-06-15T16:47:39.587Z,49.67
2023-06-15T16:48:13.271Z,55.33
2023-06-15T16:48:47.429Z,58.00
2023-06-15T16:49:23.568Z,62.67
2023-06-15T16:49:59.251Z,68.33
2023-06-15T16:50:32.555Z,81.00
2023-06-15T16:51:05.805Z,80.33
2023-06-15T16:51:39.232Z,80.00
2023-06-15T16:52:15.866Z,75.00
2023-06-15T16:52:49.186Z,71.00
2023-06-15T16:53:25.486Z,73.67
2023-06-15T16:53:58.905Z,75.67
2023-06-15T16:54:32.199Z,75.00
2023-06-15T16:55:11.704Z,72.33
2023-06-15T16:55:44.997Z,69.00
2023-06-15T16:56:18.416Z,54.00
2023-06-15T16:56:53.194Z,39.33
2023-06-15T16:57:26.528Z,33.67
2023-06-15T16:58:01.593Z,33.33
2023-06-15T16:58:35.463Z,36.33
2023-06-15T16:59:11.499Z,38.67
2023-06-15T16:59:46.216Z,40.67
2023-06-15T17:00:21.917Z,41.67
2023-06-15T17:00:55.287Z,42.67
2023-06-15T17:01:28.721Z,43.67
2023-06-15T17:02:02.593Z,45.67
2023-06-15T17:02:36.889Z,45.67
2023-06-15T17:03:10.517Z,45.67
2023-06-15T17:03:47.941Z,45.00
2023-06-15T17:04:21.418Z,45.00
2023-06-15T17:04:57.787Z,43.00
2023-06-15T17:05:31.169Z,42.33
2023-06-15T17:06:04.681Z,43.33
2023-06-15T17:06:38.310Z,45.33
2023-06-15T17:07:12.973Z,47.00
2023-06-15T17:07:49.218Z,46.33
2023-06-15T17:08:25.117Z,46.67
2023-06-15T17:08:58.750Z,46.00
2023-06-15T17:09:38.909Z,46.00
2023-06-15T17:10:12.603Z,43.67
2023-06-15T17:10:48.435Z,36.33
2023-06-15T17:11:21.743Z,31.33
2023-06-15T17:11:56.500Z,30.00
2023-06-15T17:12:29.851Z,28.67
2023-06-15T17:13:03.118Z,28.67
2023-06-15T17:13:39.162Z,29.00
2023-06-15T17:14:12.531Z,27.33
2023-06-15T17:14:46.761Z,27.33
2023-06-15T17:15:20.374Z,28.00
2023-06-15T17:15:56.524Z,29.00
2023-06-15T17:16:31.089Z,34.33
2023-06-15T17:17:04.598Z,67.33
2023-06-15T17:17:38.569Z,72.00
2023-06-15T17:18:13.032Z,67.00
2023-06-15T17:18:46.371Z,60.00
2023-06-15T17:19:21.188Z,58.33
2023-06-15T17:19:59.830Z,58.00
2023-06-15T17:20:33.280Z,57.00
2023-06-15T17:21:06.641Z,56.67
2023-06-15T17:21:40.207Z,55.00
2023-06-15T17:22:13.556Z,50.33
2023-06-15T17:22:50.557Z,44.67
2023-06-15T17:23:24.967Z,40.67
2023-06-15T17:23:59.215Z,34.00
2023-06-15T17:24:32.766Z,28.00
2023-06-15T17:25:06.794Z,24.67
2023-06-15T17:25:40.179Z,24.33
2023-06-15T17:26:13.516Z,27.67
2023-06-15T17:26:46.850Z,28.67
2023-06-15T17:27:20.507Z,28.67
2023-06-15T17:27:53.954Z,29.00
2023-06-15T17:28:27.291Z,30.00
2023-06-15T17:29:00.991Z,30.00
2023-06-15T17:29:36.454Z,29.33
2023-06-15T17:30:10.582Z,28.00
2023-06-15T17:30:46.853Z,25.00
2023-06-15T17:31:20.383Z,23.00
2023-06-15T17:31:53.752Z,23.00
2023-06-15T17:32:29.929Z,24.00
2023-06-15T17:33:03.873Z,25.00
2023-06-15T17:33:38.221Z,25.00
2023-06-15T17:34:12.986Z,25.00
2023-06-15T17:34:46.519Z,26.00
2023-06-15T17:35:22.619Z,26.33
2023-06-15T17:35:58.924Z,27.00
2023-06-15T17:36:32.319Z,27.00
2023-06-15T17:37:08.769Z,27.00
2023-06-15T17:37:45.121Z,27.33
2023-06-15T17:38:18.702Z,29.00
2023-06-15T17:38:54.910Z,30.67
2023-06-15T17:39:28.293Z,31.67
2023-06-15T17:40:01.607Z,32.67
2023-06-15T17:40:35.044Z,33.00
2023-06-15T17:41:11.492Z,33.00
2023-06-15T17:41:45.059Z,33.67
2023-06-15T17:42:18.423Z,35.00
2023-06-15T17:42:52.376Z,38.00
2023-06-15T17:43:28.678Z,44.67
2023-06-15T17:44:03.190Z,79.00
2023-06-15T17:44:36.887Z,96.33
2023-06-15T17:45:10.937Z,110.00
2023-06-15T17:45:44.512Z,111.33
2023-06-15T17:46:18.482Z,125.33
2023-06-15T17:46:52.352Z,130.00
2023-06-15T17:47:26.139Z,110.67
2023-06-15T17:47:59.614Z,91.67
2023-06-15T17:48:33.423Z,84.67
2023-06-15T17:49:07.965Z,80.33
2023-06-15T17:49:41.383Z,79.00
2023-06-15T17:50:17.679Z,77.67
2023-06-15T17:50:54.758Z,74.33
2023-06-15T17:51:28.081Z,73.33
2023-06-15T17:52:02.652Z,74.33
2023-06-15T17:52:37.514Z,72.33
2023-06-15T17:53:11.131Z,70.67
2023-06-15T17:53:44.955Z,69.67
2023-06-15T17:54:18.311Z,70.00
2023-06-15T17:54:51.675Z,69.33
2023-06-15T17:55:24.990Z,67.33
2023-06-15T17:56:01.724Z,68.00
2023-06-15T17:56:35.199Z,67.00
2023-06-15T17:57:08.872Z,63.67
2023-06-15T17:57:42.541Z,64.00
2023-06-15T17:58:16.696Z,64.00
2023-06-15T17:58:51.332Z,66.67
2023-06-15T17:59:24.655Z,70.67
2023-06-15T17:59:58.758Z,71.67
2023-06-15T18:00:35.067Z,70.33
2023-06-15T18:01:11.980Z,69.67
2023-06-15T18:01:45.732Z,65.00
2023-06-15T18:02:19.243Z,63.67
2023-06-15T18:02:52.648Z,87.00
2023-06-15T18:03:30.131Z,109.00
2023-06-15T18:04:05.087Z,110.00
2023-06-15T18:04:42.120Z,110.67
2023-06-15T18:05:18.872Z,117.33
2023-06-15T18:05:53.539Z,123.00
2023-06-15T18:06:26.864Z,109.00
2023-06-15T18:07:01.532Z,114.33
2023-06-15T18:07:34.797Z,109.00
2023-06-15T18:08:10.763Z,113.00
2023-06-15T18:08:47.186Z,106.00
2023-06-15T18:09:23.304Z,104.00
2023-06-15T18:09:56.756Z,107.67
2023-06-15T18:10:30.127Z,104.33
2023-06-15T18:11:03.463Z,103.00
2023-06-15T18:11:41.061Z,101.67
2023-06-15T18:12:14.458Z,97.67
2023-06-15T18:12:48.020Z,113.67
2023-06-15T18:13:21.499Z,122.67
2023-06-15T18:13:54.969Z,124.67
2023-06-15T18:14:28.446Z,140.00
2023-06-15T18:15:04.412Z,132.67
2023-06-15T18:15:40.408Z,131.33
2023-06-15T18:16:15.542Z,140.67
2023-06-15T18:16:52.476Z,139.33
2023-06-15T18:17:25.873Z,141.67
2023-06-15T18:18:00.169Z,145.67
2023-06-15T18:18:34.500Z,153.00
2023-06-15T18:19:11.366Z,150.00
2023-06-15T18:19:44.675Z,142.67
2023-06-15T18:20:19.227Z,144.00
2023-06-15T18:20:52.671Z,145.33
2023-06-15T18:21:26.185Z,145.67
2023-06-15T18:21:59.576Z,150.33
2023-06-15T18:22:33.142Z,158.67
2023-06-15T18:23:07.647Z,177.33
2023-06-15T18:23:41.014Z,186.67
2023-06-15T18:24:14.397Z,182.00
2023-06-15T18:24:47.833Z,193.00
2023-06-15T18:25:21.661Z,218.67
2023-06-15T18:25:56.817Z,220.67
2023-06-15T18:26:31.441Z,226.33
2023-06-15T18:27:05.360Z,223.67
2023-06-15T18:27:39.778Z,203.33
2023-06-15T18:28:13.119Z,185.00
2023-06-15T18:28:46.606Z,188.00
2023-06-15T18:29:23.824Z,183.67
2023-06-15T18:30:06.463Z,179.67
2023-06-15T18:30:41.543Z,186.33
2023-06-15T18:31:14.955Z,202.00
2023-06-15T18:31:50.098Z,187.00
2023-06-15T18:32:24.631Z,189.00
2023-06-15T18:32:59.034Z,222.67
2023-06-15T18:33:32.582Z,235.00
2023-06-15T18:34:10.737Z,223.67
2023-06-15T18:34:52.045Z,233.00
2023-06-15T18:35:26.905Z,262.00
2023-06-15T18:36:00.690Z,273.33
2023-06-15T18:36:34.971Z,256.33
2023-06-15T18:37:08.356Z,239.00
2023-06-15T18:37:44.788Z,237.33
2023-06-15T18:38:18.333Z,255.33
2023-06-15T18:38:54.847Z,257.33
2023-06-15T18:39:29.607Z,260.00
2023-06-15T18:40:03.346Z,255.33
2023-06-15T18:40:37.355Z,267.67
2023-06-15T18:41:10.770Z,281.00
2023-06-15T18:41:46.830Z,287.33
2023-06-15T18:42:20.624Z,291.33
2023-06-15T18:42:54.106Z,285.00
2023-06-15T18:43:27.792Z,280.67
2023-06-15T18:44:01.226Z,283.67
2023-06-15T18:44:34.702Z,286.67
2023-06-15T18:45:09.789Z,274.33
2023-06-15T18:45:43.293Z,272.00
2023-06-15T18:46:19.805Z,283.00
2023-06-15T18:46:53.437Z,293.33
2023-06-15T18:47:27.562Z,300.67
2023-06-15T18:48:01.337Z,303.33
2023-06-15T18:48:34.719Z,307.00
2023-06-15T18:49:11.387Z,307.67
2023-06-15T18:49:50.948Z,310.67
2023-06-15T18:50:27.617Z,313.33
2023-06-15T18:51:01.495Z,316.33
2023-06-15T18:51:37.755Z,310.67
2023-06-15T18:52:13.997Z,299.67
2023-06-15T18:52:49.572Z,303.00
2023-06-15T18:53:28.424Z,300.67
2023-06-15T18:54:02.277Z,304.67
2023-06-15T18:54:36.132Z,303.67
2023-06-15T18:55:11.382Z,303.00
2023-06-15T18:55:48.061Z,303.67
2023-06-15T18:56:21.794Z,301.33
2023-06-15T18:56:55.705Z,302.67
2023-06-15T18:57:29.194Z,302.33
2023-06-15T18:58:04.817Z,304.33
2023-06-15T18:58:40.614Z,309.67
2023-06-15T18:59:15.449Z,316.33
2023-06-15T18:59:49.708Z,316.67
2023-06-15T19:00:23.334Z,321.33
2023-06-15T19:00:57.561Z,411.67
2023-06-15T19:01:31.174Z,387.67
2023-06-15T19:02:06.786Z,342.33
2023-06-15T19:02:46.421Z,327.67
2023-06-15T19:03:20.959Z,326.33
2023-06-15T19:03:54.846Z,327.00
2023-06-15T19:04:32.538Z,328.33
2023-06-15T19:05:08.069Z,336.67
2023-06-15T19:05:42.733Z,342.67
2023-06-15T19:06:19.575Z,346.00
2023-06-15T19:06:53.349Z,339.67
2023-06-15T19:07:27.143Z,334.67
2023-06-15T19:08:00.824Z,333.00
2023-06-15T19:08:34.670Z,327.67
2023-06-15T19:09:11.464Z,315.33
2023-06-15T19:09:45.198Z,313.00
2023-06-15T19:10:19.078Z,311.67
2023-06-15T19:10:52.803Z,311.00
2023-06-15T19:11:30.234Z,310.33
2023-06-15T19:12:04.685Z,308.33
2023-06-15T19:12:38.206Z,305.33
2023-06-15T19:13:11.927Z,305.33
2023-06-15T19:13:45.664Z,301.33
2023-06-15T19:14:24.484Z,299.67
2023-06-15T19:14:58.368Z,297.33
2023-06-15T19:15:33.389Z,280.67
2023-06-15T19:16:10.251Z,247.33
2023-06-15T19:16:47.164Z,227.00
2023-06-15T19:17:21.215Z,211.67
2023-06-15T19:17:58.077Z,193.00
2023-06-15T19:18:31.873Z,190.00
2023-06-15T19:19:08.336Z,176.67
2023-06-15T19:19:43.011Z,164.33
2023-06-15T19:20:16.751Z,161.33
2023-06-15T19:20:51.643Z,156.67
2023-06-15T19:21:25.389Z,161.33
2023-06-15T19:21:59.274Z,165.33
2023-06-15T19:22:35.671Z,163.00
2023-06-15T19:23:10.479Z,161.00
2023-06-15T19:23:46.925Z,154.33
2023-06-15T19:24:23.678Z,145.00
2023-06-15T19:25:00.166Z,137.00
2023-06-15T19:25:37.059Z,132.00
2023-06-15T19:26:27.601Z,138.67
2023-06-15T19:27:02.349Z,134.33
2023-06-15T19:27:36.177Z,139.67
2023-06-15T19:28:10.501Z,151.67
2023-06-15T19:28:44.564Z,158.67
2023-06-15T19:29:18.581Z,161.33
2023-06-15T19:29:52.783Z,154.00
2023-06-15T19:30:27.028Z,153.00
2023-06-15T19:31:01.166Z,161.00
2023-06-15T19:31:35.285Z,167.00
2023-06-15T19:32:09.136Z,172.00
2023-06-15T19:32:43.866Z,183.00
2023-06-15T19:33:17.663Z,201.00
2023-06-15T19:33:51.449Z,216.00
2023-06-15T19:34:25.363Z,216.67
2023-06-15T19:35:00.213Z,208.33